Latest Weather Observations for Pound Creek

IDV60801

Issued at 8:35 pm EDT Wednesday 22 October 2014 (issued every 30 minutes, with the page automatically refreshed every 10 minutes)

About weather observations | Map of weather stations | Latest weather observations for VIC | Other Formats
Station Details ID: 085099 Name: POUND CREEK Lat: -38.63 Lon: 145.81 Height: 3.0 m
Data from the previous 72 hours. | See also: Recent months at Pound Creek
Date/Time
EDT
Temp
°C
App
Temp
°C
Dew
Point
Rel
Hum
%
Delta-T
°C
Wind Press
QNH
hPa
Press
MSL
hPa
Rain
since 9 am
mm
Dir
 
Spd
km/h
Gust
km/h
Spd
kts
Gust
kts
22/08:30pm 19.0 18.7 16.4 85 1.6 SW 13 17 7 9 1015.6 1015.6 0.0
22/08:00pm 20.3 21.4 17.1 82 1.9 S 7 9 4 5 1014.8 1014.8 0.0
22/07:30pm 23.1 25.3 18.4 75 3.0 S 4 7 2 4 1014.6 1014.6 0.0
22/07:00pm 24.5 26.9 18.7 70 3.7 ESE 4 6 2 3 1014.3 1014.3 0.0
22/06:30pm 25.4 28.7 20.0 72 3.5 S 2 4 1 2 1014.4 1014.4 0.0
22/06:00pm 26.8 29.1 18.6 60 5.2 NNE 4 6 2 3 1014.4 1014.4 0.0
22/05:30pm 27.4 29.4 17.8 55 6.1 NNE 4 4 2 2 1014.4 1014.4 0.0
22/05:00pm 27.1 27.4 15.1 47 7.3 N 7 13 4 7 1014.5 1014.5 0.0
22/04:30pm 28.8 27.3 11.8 35 9.8 N 11 13 6 7 1014.8 1014.8 0.0
22/04:00pm 28.7 28.3 15.2 43 8.2 N 11 15 6 8 1015.0 1015.0 0.0
22/03:30pm 29.0 30.0 16.9 48 7.6 N 7 17 4 9 1015.4 1015.4 0.0
22/03:00pm 28.5 29.1 15.8 46 7.8 NNW 7 17 4 9 1015.6 1015.6 0.0
22/02:30pm 28.1 28.8 16.1 48 7.4 N 7 11 4 6 1016.2 1016.2 0.0
22/02:00pm 27.5 27.7 15.8 48 7.2 N 9 15 5 8 1016.5 1016.5 0.0
22/01:30pm 27.0 26.9 16.0 51 6.8 N 11 15 6 8 1016.8 1016.8 0.0
22/01:00pm 26.6 26.1 15.0 49 7.0 NNW 11 17 6 9 1017.2 1017.2 0.0
22/12:30pm 26.5 26.7 16.7 55 6.1 NNW 11 19 6 10 1017.6 1017.6 0.0
22/12:00pm 25.7 24.6 15.4 53 6.2 N 15 20 8 11 1018.1 1018.1 0.0
22/11:30am 25.4 25.2 15.7 55 5.9 N 11 22 6 12 1018.5 1018.5 0.0
22/11:00am 24.2 24.1 15.9 59 5.0 N 11 17 6 9 1018.8 1018.8 0.0
22/10:30am 23.4 23.8 16.2 64 4.4 N 9 15 5 8 1019.2 1019.2 0.0
22/10:00am 22.0 22.8 14.9 64 4.2 N 4 6 2 3 1019.6 1019.6 0.0
22/09:30am 20.7 21.3 15.3 71 3.2 NNE 6 7 3 4 1019.7 1019.7 0.0
22/09:00am 18.9 18.5 14.2 74 2.7 N 9 15 5 8 1019.4 1019.4 0.0
22/08:30am 17.2 16.2 13.3 78 2.2 NNE 11 15 6 8 1019.3 1019.3 0.0
22/08:00am 15.5 16.5 13.2 86 1.3 CALM 0 2 0 1 1019.5 1019.5 0.0
22/07:30am 13.9 13.5 12.5 91 0.8 NNE 6 11 3 6 1019.6 1019.6 0.0
22/07:00am 9.9 9.7 9.0 94 0.4 CALM 0 2 0 1 1019.5 1019.5 0.0
22/06:30am 9.9 9.3 9.1 95 0.4 ENE 2 4 1 2 1019.6 1019.6 0.0
22/06:00am 9.4 9.1 8.5 94 0.4 CALM 0 0 0 0 1019.6 1019.6 0.0
22/05:30am 9.7 9.4 8.8 94 0.4 CALM 0 2 0 1 1019.7 1019.7 0.0
22/05:00am 9.4 8.2 8.2 92 0.6 E 4 6 2 3 1019.7 1019.7 0.0
22/04:30am 9.7 8.2 8.3 91 0.7 E 6 6 3 3 1019.8 1019.8 0.0
22/04:00am 10.6 9.6 8.9 89 0.8 E 4 6 2 3 1020.1 1020.1 0.0
22/03:30am 11.2 9.7 9.1 87 1.0 E 7 11 4 6 1020.3 1020.3 0.0
22/03:00am 11.4 9.9 9.1 86 1.1 E 7 11 4 6 1020.7 1020.7 0.0
22/02:30am 11.7 10.2 9.3 85 1.2 E 7 9 4 5 1021.1 1021.1 0.0
22/02:00am 11.7 10.2 9.1 84 1.3 E 7 9 4 5 1021.6 1021.6 0.0
22/01:30am 12.3 10.1 9.5 83 1.4 E 11 17 6 9 1022.0 1022.0 0.0
22/01:00am 12.1 9.9 9.5 84 1.3 E 11 17 6 9 1022.7 1022.7 0.0
22/12:30am 11.8 9.7 9.9 88 1.0 ENE 11 15 6 8 1022.8 1022.8 0.0
22/12:00am 10.9 9.4 9.0 88 0.9 E 7 9 4 5 1023.4 1023.4 0.0
 
Date/Time
EDT
Temp
°C
App
Temp
°C
Dew
Point
Rel
Hum
%
Delta-T
°C
Wind Press
QNH
hPa
Press
MSL
hPa
Rain
since 9 am
mm
Dir
 
Spd
km/h
Gust
km/h
Spd
kts
Gust
kts
21/11:30pm 11.2 10.0 9.5 89 0.9 ESE 6 7 3 4 1023.8 1023.8 0.0
21/11:00pm 11.4 10.0 9.5 88 1.0 E 7 11 4 6 1024.0 1024.0 0.0
21/10:30pm 11.8 9.7 9.7 87 1.1 E 11 15 6 8 1024.4 1024.4 0.0
21/10:00pm 12.5 10.2 10.4 87 1.1 E 13 20 7 11 1024.6 1024.6 0.0
21/09:30pm 12.8 10.5 10.5 86 1.2 E 13 20 7 11 1024.6 1024.6 0.0
21/09:00pm 13.2 10.6 10.7 85 1.3 E 15 22 8 12 1024.6 1024.6 0.0
21/08:30pm 13.6 10.6 10.6 82 1.6 E 17 26 9 14 1024.5 1024.5 0.0
21/08:00pm 14.1 10.5 10.5 79 1.9 E 20 26 11 14 1024.4 1024.4 0.0
21/07:30pm 14.8 11.4 10.6 76 2.2 E 19 30 10 16 1024.4 1024.4 0.0
21/07:00pm 16.0 11.9 11.4 74 2.5 E 24 33 13 18 1024.0 1024.0 0.0
21/06:30pm 16.7 13.1 11.8 73 2.7 E 22 37 12 20 1024.1 1024.1 0.0
21/06:00pm 17.2 12.0 11.7 70 3.0 E 30 39 16 21 1024.1 1024.1 0.0
21/05:30pm 17.9 13.4 12.6 71 2.9 E 28 39 15 21 1024.1 1024.1 0.0
21/05:00pm 18.4 13.8 12.4 68 3.3 E 28 37 15 20 1024.2 1024.2 0.0
21/04:30pm 18.7 13.8 12.7 68 3.4 E 30 43 16 23 1024.5 1024.5 0.0
21/04:00pm 18.9 13.7 12.9 68 3.4 E 32 41 17 22 1024.6 1024.6 0.0
21/03:30pm 19.5 15.3 13.4 68 3.5 E 28 37 15 20 1025.0 1025.0 0.0
21/03:00pm 19.5 14.7 13.0 66 3.7 ESE 30 39 16 21 1025.4 1025.4 0.0
21/02:30pm 19.9 15.7 13.6 67 3.6 ESE 28 37 15 20 1025.9 1025.9 0.0
21/02:00pm 19.7 15.4 13.2 66 3.7 ESE 28 37 15 20 1026.3 1026.3 0.0
21/01:30pm 20.1 16.6 13.3 65 3.9 E 24 33 13 18 1026.6 1026.6 0.0
21/01:00pm 20.1 16.8 12.8 63 4.1 E 22 32 12 17 1026.8 1026.8 0.0
21/12:30pm 20.1 17.1 13.6 66 3.7 E 22 28 12 15 1027.1 1027.1 0.0
21/12:00pm 19.6 16.8 13.1 66 3.7 E 20 32 11 17 1027.3 1027.3 0.0
21/11:30am 18.9 15.6 12.9 68 3.4 E 22 32 12 17 1027.8 1027.8 0.0
21/11:00am 18.5 15.2 12.7 69 3.2 ESE 22 26 12 14 1028.0 1028.0 0.0
21/10:30am 17.8 15.1 11.8 68 3.3 ENE 17 24 9 13 1028.3 1028.3 0.0
21/10:00am 16.7 13.2 10.8 68 3.1 ENE 20 32 11 17 1028.5 1028.5 0.0
21/09:30am 15.9 12.3 10.4 70 2.9 ENE 20 30 11 16 1028.6 1028.6 0.0
21/09:00am 14.8 11.1 9.4 70 2.8 ENE 19 33 10 18 1028.5 1028.5 0.0
21/08:30am 13.9 10.6 9.7 76 2.2 ENE 17 24 9 13 1028.5 1028.5 0.0
21/08:00am 12.7 10.1 9.3 80 1.7 ENE 13 19 7 10 1028.3 1028.3 0.0
21/07:30am 11.2 8.8 8.6 84 1.3 ENE 11 15 6 8 1028.2 1028.2 0.0
21/07:00am 9.8 7.6 7.9 88 0.9 ENE 9 13 5 7 1027.9 1027.9 0.0
21/06:30am 8.4 6.0 6.9 90 0.7 ENE 9 13 5 7 1027.6 1027.6 0.0
21/06:00am 8.3 6.3 6.4 88 0.9 ENE 6 7 3 4 1027.3 1027.3 0.0
21/05:30am 8.8 6.4 6.8 87 0.9 ENE 9 11 5 6 1027.3 1027.3 0.0
21/05:00am 9.5 7.1 6.9 84 1.2 ENE 9 11 5 6 1027.3 1027.3 0.0
21/04:30am 10.4 7.0 7.5 82 1.4 E 15 20 8 11 1027.2 1027.2 0.0
21/04:00am 10.8 6.5 7.7 81 1.5 E 20 28 11 15 1027.2 1027.2 0.0
21/03:30am 10.6 6.4 7.5 81 1.5 E 19 24 10 13 1027.5 1027.5 0.0
21/03:00am 10.6 6.4 7.5 81 1.5 E 19 26 10 14 1027.9 1027.9 0.0
21/02:30am 10.6 6.3 7.1 79 1.7 E 19 24 10 13 1028.2 1028.2 0.0
21/02:00am 10.8 6.4 7.3 79 1.7 E 20 28 11 15 1028.6 1028.6 0.0
21/01:30am 10.8 6.3 7.1 78 1.8 E 20 26 11 14 1028.9 1028.9 0.0
21/01:00am 11.0 6.5 7.1 77 1.8 E 20 28 11 15 1029.3 1029.3 0.0
21/12:30am 11.1 6.7 7.2 77 1.9 E 20 30 11 16 1029.7 1029.7 0.0
21/12:00am 11.0 6.5 7.1 77 1.8 E 20 28 11 15 1029.8 1029.8 0.0
 
Date/Time
EDT
Temp
°C
App
Temp
°C
Dew
Point
Rel
Hum
%
Delta-T
°C
Wind Press
QNH
hPa
Press
MSL
hPa
Rain
since 9 am
mm
Dir
 
Spd
km/h
Gust
km/h
Spd
kts
Gust
kts
20/11:30pm 11.4 6.3 7.5 77 1.9 E 24 33 13 18 1030.1 1030.1 0.0
20/11:00pm 11.3 6.1 7.2 76 1.9 E 24 32 13 17 1030.3 1030.3 0.0
20/10:30pm 11.4 6.6 7.3 76 2.0 E 22 33 12 18 1030.4 1030.4 0.0
20/10:00pm 11.4 6.3 7.5 77 1.9 E 24 32 13 17 1030.5 1030.5 0.0
20/09:30pm 11.5 6.7 7.4 76 2.0 E 22 32 12 17 1030.5 1030.5 0.0
20/09:00pm 11.7 6.1 7.0 73 2.2 E 26 39 14 21 1030.2 1030.2 0.0
20/08:30pm 11.5 6.6 7.0 74 2.1 E 22 32 12 17 1030.1 1030.1 0.0
20/08:00pm 11.7 6.9 7.2 74 2.1 E 22 32 12 17 1029.8 1029.8 0.0
20/07:30pm 12.4 7.2 7.3 71 2.5 E 24 37 13 20 1029.5 1029.5 0.0
20/07:00pm 13.0 7.0 7.2 68 2.8 E 28 44 15 24 1029.5 1029.5 0.0
20/06:30pm 13.9 7.2 7.4 65 3.2 E 32 46 17 25 1029.5 1029.5 0.0
20/06:00pm 14.6 8.2 8.5 67 3.0 E 32 48 17 26 1029.3 1029.3 0.0
20/05:30pm 15.2 8.6 8.4 64 3.4 E 33 48 18 26 1029.2 1029.2 0.0
20/05:00pm 15.4 9.1 8.9 65 3.3 ESE 32 44 17 24 1029.2 1029.2 0.0
20/04:30pm 15.6 9.2 9.5 67 3.2 ESE 33 50 18 27 1029.0 1029.0 0.0
20/04:00pm 15.6 9.4 9.5 67 3.1 E 32 44 17 24 1029.0 1029.0 0.0
20/03:30pm 16.0 9.5 10.3 69 3.0 E 35 46 19 25 1029.4 1029.4 0.0
20/03:00pm 15.7 9.4 9.8 68 3.0 ESE 33 46 18 25 1029.7 1029.7 0.0
20/02:30pm 16.0 10.1 10.3 69 3.0 ESE 32 44 17 24 1029.9 1029.9 0.0
20/02:00pm 15.5 9.4 9.6 68 3.0 E 32 44 17 24 1030.1 1030.1 0.0
20/01:30pm 15.6 9.5 9.9 69 3.0 E 32 44 17 24 1030.3 1030.3 0.0
20/01:00pm 15.1 9.2 9.2 68 3.0 E 30 43 16 23 1030.4 1030.4 0.0
20/12:30pm 15.7 11.0 10.5 71 2.7 E 26 37 14 20 1030.6 1030.6 0.0
20/12:00pm 15.1 9.6 9.2 68 3.0 E 28 37 15 20 1031.0 1031.0 0.0
20/11:30am 15.4 10.2 8.9 65 3.3 E 26 41 14 22 1031.2 1031.2 0.0
20/11:00am 14.8 9.7 7.8 63 3.5 ESE 24 33 13 18 1031.5 1031.5 0.0
20/10:30am 14.4 8.6 8.1 66 3.1 ESE 28 35 15 19 1031.7 1031.7 0.0
20/10:00am 13.9 9.1 7.4 65 3.2 E 22 32 12 17 1031.8 1031.8 0.0
20/09:30am 13.5 10.5 7.5 67 2.9 ESE 13 19 7 10 1031.9 1031.9 0.0
20/09:00am 12.6 9.0 6.9 68 2.7 ESE 15 19 8 10 1031.7 1031.7 0.0
20/08:30am 11.9 10.0 7.4 74 2.2 ESE 7 15 4 8 1031.4 1031.4 0.0
20/08:00am 9.2 8.2 7.3 88 0.9 S 2 6 1 3 1031.4 1031.4 0.0
20/07:30am 6.2 4.7 5.0 92 0.5 W 2 4 1 2 1031.4 1031.4 0.0
20/07:00am 3.9 2.0 2.7 92 0.5 ENE 2 4 1 2 1031.2 1031.2 0.0
20/06:30am 3.2 1.5 1.7 90 0.6 CALM 0 0 0 0 1030.7 1030.7 0.0
20/06:00am 4.0 1.6 1.9 86 0.8 ESE 4 6 2 3 1030.4 1030.4 0.0
20/05:30am 4.8 2.1 2.8 87 0.8 E 6 7 3 4 1030.3 1030.3 0.0
20/05:00am 5.7 3.2 3.9 88 0.8 E 6 7 3 4 1030.0 1030.0 0.0
20/04:30am 6.3 3.9 4.1 86 0.9 E 6 6 3 3 1030.1 1030.1 0.0
20/04:00am 6.3 3.6 3.8 84 1.0 ESE 7 11 4 6 1029.8 1029.8 0.0
20/03:30am 6.9 4.4 4.0 82 1.2 E 6 9 3 5 1030.0 1030.0 0.0
20/03:00am 9.7 5.7 5.1 73 2.1 SSE 15 22 8 12 1029.9 1029.9 0.0
20/02:30am 10.5 6.5 6.5 76 1.9 S 17 24 9 13 1029.8 1029.8 0.0
20/02:00am 10.7 6.3 6.6 76 1.9 S 19 24 10 13 1029.7 1029.7 0.0
20/01:30am 11.1 6.6 7.0 76 2.0 S 20 28 11 15 1029.8 1029.8 0.0
20/01:00am 11.8 6.8 8.1 78 1.8 S 24 33 13 18 1029.6 1029.6 0.0
20/12:30am 12.0 7.1 8.5 79 1.7 S 24 32 13 17 1029.2 1029.2 0.0
20/12:00am 11.7 7.0 9.4 86 1.1 S 24 33 13 18 1029.1 1029.1 0.0
 
Date/Time
EDT
Temp
°C
App
Temp
°C
Dew
Point
Rel
Hum
%
Delta-T
°C
Wind Press
QNH
hPa
Press
MSL
hPa
Rain
since 9 am
mm
Dir
 
Spd
km/h
Gust
km/h
Spd
kts
Gust
kts
19/11:30pm 12.5 8.1 9.0 79 1.8 SSW 22 30 12 16 1028.9 1028.9 0.0
19/11:00pm 12.4 8.0 9.1 80 1.6 SSW 22 30 12 16 1028.8 1028.8 0.0
19/10:30pm 12.4 7.6 8.9 79 1.8 SSW 24 32 13 17 1028.5 1028.5 0.0
19/10:00pm 12.6 7.6 9.4 81 1.6 SSW 26 35 14 19 1028.2 1028.2 0.0
19/09:30pm 12.8 8.3 10.2 84 1.3 SSW 24 33 13 18 1027.6 1027.6 0.0
19/09:00pm 12.8 7.3 10.5 86 1.2 SSW 30 39 16 21 1026.7 1026.7 0.0

Other Formats:

Comma delimited format used in spreadsheet applications
http://www.bom.gov.au/fwo/IDV60801/IDV60801.94886.axf

JavaScript Object Notation format (JSON) in row-major order
http://www.bom.gov.au/fwo/IDV60801/IDV60801.94886.json